パゴパゴ国際空港の過去48時間の天気

パゴパゴ国際空港 (Pago Pago / Int. Airport)

現在時刻: 7/4 17:38 SST (7/5 04:38 UTC) 以下の時間は現地時間です。

過去48時間のMETAR気象情報
時間 風向 風速(m/s) 視程 気温(℃) 湿度(%) 気圧(hPa) 天気現象
4 16:50 静穏 0 10km以上 24.2 90 1012.9 弱いしゅう雨
4 15:50 不定 2 10km以上 24.6 89 1012.5 弱いしゅう雨
4 14:50 静穏 0 10km以上 23.9 86 1012.5 弱いしゅう雨
4 13:50 6 10km以上 26.5 82 1012.5 周辺でしゅう雨
4 12:50 3 10km以上 26.7 85 1012.9 周辺でしゅう雨
4 11:50 3 10km以上 27 84 1013.4
4 10:50 3 10km以上 26.3 84 1013.7 弱いしゅう雨
4 09:55 6 10km以上 27.7 83 1013.7
4 08:50 東北東 4 10km以上 27.1 81 1013.5
4 07:50 不定 2 10km以上 26.7 83 1012.9
4 06:50 不定 2 10km以上 25.5 86 1012.5
4 05:50 不定 2 10km以上 25.6 86 1011.9 弱いしゅう雨
4 04:50 7 10km以上 26.3 86 1011.5
4 03:50 5 10km以上 26.2 85 1011.3
4 01:50 東南東 6 10km以上 26.2 85 1011.5
4 00:50 5 10km以上 26.2 86 1012
3 23:50 5 10km以上 25.8 83 1012
3 22:50 東南東 5 10km以上 26.2 84 1012.4
3 21:50 東南東 5 10km以上 26.2 84 1012.4
3 20:50 東南東 6 10km以上 26.6 84 1012
3 19:50 南南東 5 10km以上 26.1 86 1011.9
3 18:50 東南東 4 10km以上 26.6 81 1011.3
3 17:50 北北東 5 10km以上 26.7 84 1011
3 16:50 5 10km以上 27.6 79 1010.5
3 15:50 4 10km以上 28 75 1010
3 14:50 5 10km以上 29.3 71 1010.2
3 13:50 6 10km以上 29.6 71 1010.7
3 11:50 東南東 7 10km以上 29.6 72 1012.2
3 10:50 東南東 7 10km以上 27.8 77 1012.4
3 09:50 東南東 8 10km以上 28.6 75 1012.7
3 08:50 東南東 8 10km以上 27.5 79 1012.5
3 06:50 東南東 9 10km以上 26.3 79 1011.7
3 05:50 東南東 6 10km以上 25.5 83 1011.2
3 04:50 南東 8 10km以上 26.9 75 1010.8
3 02:50 南東 8 10km以上 26.9 72 1011.2
3 01:50 南東 8 10km以上 26.9 73 1011.3
3 00:50 南東 9 10km以上 27 73 1011.9
2 23:50 東南東 9 10km以上 26.9 73 1012
2 22:50 南東 10 10km以上 27.1 72 1012.2
2 21:50 南東 8 10km以上 27.2 73 1012.2
2 20:52 東南東 9 10km以上 27.2 72 1012
2 19:50 東南東 7 10km以上 27.3 73 1011.7
2 18:50 東南東 8 10km以上 27.4 72 1011.3
2 17:50 7 10km以上 27.5 72 1010.8
NSTU 050350Z 00000KT 10SM -SHRA SCT016TCU BKN040 OVC100 24/23 A2991 RMK TCU ALQDS SLP129 T02420225
NSTU 050250Z VRB03KT 10SM -SHRA SCT016TCU BKN040 OVC100 25/23 A2990 RMK TCU ALQDS SLP125 60012 8/42/ T02460227 56003
NSTU 050150Z 00000KT 10SM -SHRA SCT016TCU BKN040 OVC100 24/22 A2990 RMK SHRAB02 TCU ALQDS SLP125 T02390215
NSTU 050050Z 10011KT 7SM VCSH SCT016TCU BKN040 OVC100 27/23 A2990 RMK TCU N-E-S SLP125 T02650231
NSTU 042350Z VRB06KT 12SM VCSH SCT017TCU BKN040 BKN100 OVC200 27/24 A2991 RMK VCSH E TCU E SLP129 60004 8/428 T02670240 10277 20255 57008
NSTU 042250Z VRB06KT 12SM SCT019 SCT040 BKN100 OVC200 27/24 A2992 RMK SHRAE03 SLP134 T02700241
NSTU 042150Z VRB05KT 12SM -SHRA SCT018 BKN040 BKN100 26/23 A2993 RMK SHRAB01 SLP137 T02630234
NSTU 042055Z 10012KT 12SM SCT018TCU BKN040 BKN100 OVC200 28/25 A2993 RMK TCU S SLP137 8/478 T02770245 52012
NSTU 041950Z 06007KT 12SM SCT019 BKN040 BKN100 27/24 A2993 RMK SLP135 T02710235
NSTU 041850Z VRB04KT 12SM FEW020 SCT040 BKN100 27/24 A2991 RMK SLP129 T02670236
NSTU 041750Z VRB04KT 12SM FEW020TCU SCT040 BKN100 26/23 A2990 RMK SHRAE20 TCU E-S SLP125 60001 8/810 T02550230 10263 20255 52012
NSTU 041650Z VRB04KT 10SM -SHRA SCT018TCU BKN040 OVC100 26/23 A2988 RMK SHRAB45 TCU W-N-NE SLP119 T02560231
NSTU 041550Z 08014KT 10SM SCT018 BKN040 BKN100 26/24 A2987 RMK SLP115 T02630238
NSTU 041450Z 10010KT 10SM SCT018 BKN040 BKN100 26/24 A2986 RMK SLP113 8/820 T02620235 57007
NSTU 041250Z 11011KT 10SM FEW020 SCT040 BKN100 26/23 A2987 RMK SLP115 T02620234
NSTU 041150Z 10010KT 10SM FEW019 SCT040 BKN100 26/24 A2988 RMK SLP120 60002 70005 8/820 T02620236 10266 20258 57003
NSTU 041050Z 09009KT 10SM FEW019 SCT040 BKN100 26/23 A2988 RMK SLP120 T02580227 402960255
NSTU 040950Z 11010KT 10SM FEW019 SCT040 BKN100 26/23 A2989 RMK SLP124 T02620233
NSTU 040850Z 11009KT 10SM FEW019 SCT040 SCT100 26/23 A2989 RMK SLP124 60002 8/870 T02620233 52010
NSTU 040750Z 12012KT 10SM FEW019 SCT040 BKN100 27/24 A2988 RMK SLP120 T02660237
NSTU 040650Z 16009G11KT 10SM FEW019 SCT040 BKN100 26/24 A2988 RMK SHRAB19E42 SLP119 T02610235
NSTU 040550Z 11008KT 10SM SCT019 SCT040 BKN090 27/23 A2986 RMK SLP113 60002 8/870 T02660231 10296 20266 52014
NSTU 040450Z 03010KT 12SM FEW013TCU SCT040 SCT090 27/24 A2985 RMK TCU NW-N SLP110 T02670238
NSTU 040350Z 09009KT 12SM SCT021TCU BKN040 BKN090 28/24 A2984 RMK SHRAB01E31 TCU SE-S SLP105 T02760236
NSTU 040250Z 10007KT 12SM SCT021 BKN040 28/23 A2982 RMK SLP100 8/800 T02800231 57014
NSTU 040150Z 10010KT 12SM SCT021 SCT040 29/23 A2983 RMK SLP102 T02930234
NSTU 040050Z 09011KT 12SM FEW021 SCT040 30/24 A2984 RMK SLP107 T02960238
NSTU 032250Z 11013KT 12SM FEW021 SCT040 30/24 A2989 RMK SLP122 T02960240
NSTU 032150Z 11013KT 12SM FEW021 SCT040 28/23 A2989 RMK SLP124 T02780234
NSTU 032050Z 11015KT 12SM FEW016 SCT040 SCT100 29/24 A2990 RMK SLP127 60001 8/820 T02860237 51010
NSTU 031950Z 11015KT 12SM SCT016TCU SCT040 BKN100 28/24 A2990 RMK TCU NW-N AND OHD SLP125 T02750236
NSTU 031750Z 12017KT 12SM FEW016 SCT040 26/22 A2987 RMK SLP117 8/800 T02630224 10270 20255 51007
NSTU 031650Z 11012KT 10SM FEW018 SCT040 BKN100 26/22 A2986 RMK SLP112 T02550224
NSTU 031550Z 13016KT 10SM SCT021 SCT040 27/22 A2985 RMK SLP108 T02690221
NSTU 031350Z 13016KT 10SM SCT021 27/21 A2986 RMK SLP112 T02690214
NSTU 031250Z 13015KT 10SM SCT021 27/22 A2986 RMK SLP113 T02690217
NSTU 031150Z 13017KT 10SM SCT020 27/22 A2988 RMK SLP119 8/100 T02700218 10274 20269 56003
NSTU 031050Z 12018G23KT 10SM SCT020 27/22 A2988 RMK SLP120 T02690216 403000256
NSTU 030950Z 13019KT 10SM SCT020 27/22 A2989 RMK SLP122 T02710216
NSTU 030850Z 13015KT 10SM SCT020 27/22 A2989 RMK SLP122 8/100 T02720219 51008
NSTU 030752Z 12018KT 10SM SCT020 27/22 A2988 RMK SLP120 T02720218
NSTU 030650Z 11014KT 10SM FEW022 27/22 A2987 RMK SLP117 T02730221
NSTU 030550Z 11015KT 10SM FEW022 SCT120 27/22 A2986 RMK SLP113 8/170 T02740220 10300 20274 52010
NSTU 030450Z 10014G20KT 12SM FEW022 SCT120 28/22 A2985 RMK SLP108 T02750221